Portada
METAR-TAF:

METAR-TAF

Aeroports :

Namangan, Uzbekistan

latitud: 40-59-04N, longitud: 071-33-24E, altitud: 474 m

Observació

L'informe es va fer fa 30 minuts, a les 00:00 UTC
Vent calma
Temperatura 1°C
Humitat 59%
Pressió 1029 hPa
Visibilitat 10 km o més

METAR: UTFN 060000Z 00000KT 9999 NSC 01/M06 Q1029 R28/CLRD70 NOSIG

Hora: 05:30 (00:30 UTC)

Pronòstic

L'informe es va fer fa 1 hora i 30 minuts, a les 23:00 UTC
Pronòstic vàlid del 06 a les 00 UTC al 06 a les 24 UTC
Vent 10 kt del Nord/Nord-Oest
Visibilitat: 5000 m
boirina

TAF: UTFN 052300Z 0600/0624 33010KT 5000 BR NSC

Observacions i pronòstics meteorològics de més de 4000 aeroports (METAR i TAF).

Les estacions disponibles són els punts grocs i vermells al mapa.

Posi el ratolí al punt desitjat per veure el nom de l'estació.

Feu clic per veure les observacions i els pronòstics meteorològics.

Per canviar el mapa: feu clic els botons verds amb una creu de color negre per apropar; al botó verd amb un guió per allunyar la imatge; o en les fletxes verdes per a mapes adjacents.


METAR-TAF: